KLOT/LOT METAR and TAF weather

Enter ICAO airport designator
Station Type Date Time Source
KLOT METAR 2022/01/26 08:10 UTC NOAA

KLOT 260810Z AUTO 30007KT 10SM CLR M22/M25 A3046 RMK AO2 T12221253


Station Type Date Time Source
KLOT Decoded METAR 2022/01/26 08:10 UTC NOAA

Chicago/Romeoville, Lewis University Airport, IL, United States (KLOT) 41-36-30N 088-05-39W
Jan 26, 2022 - 03:10 AM EST / 2022.01.26 0810 UTC
Wind: from the WNW (300 degrees) at 8 MPH (7 KT):0
Visibility: 10 mile(s):0
Sky conditions: clear
Temperature: -8.0 F (-22.2 C)
Windchill: -23 F (-31 C):2
Dew Point: -13.5 F (-25.3 C)
Relative Humidity: 75%
Pressure (altimeter): 30.46 in. Hg (1031 hPa)
ob: KLOT 260810Z AUTO 30007KT 10SM CLR M22/M25 A3046 RMK AO2 T12221253
cycle: 8

Station Type Date Time Source
KLOT TAF UTC NOAA

Error!

Example: see airport list